sensor_id;sensor_type;location;lat;lon;timestamp;pressure;altitude;pressure_sealevel;temperature
73937;BMP180;59249;59.736;30.568;2022-08-19T00:02:14;101761.00;;;21.60
73937;BMP180;59249;59.736;30.568;2022-08-19T00:04:44;101762.00;;;21.60
73937;BMP180;59249;59.736;30.568;2022-08-19T00:11:47;101769.00;;;21.60
73937;BMP180;59249;59.736;30.568;2022-08-19T00:14:16;101767.00;;;21.50
73937;BMP180;59249;59.736;30.568;2022-08-19T00:16:46;101764.00;;;21.50
73937;BMP180;59249;59.736;30.568;2022-08-19T00:23:04;101763.00;;;21.40
73937;BMP180;59249;59.736;30.568;2022-08-19T00:25:32;101754.00;;;21.40
73937;BMP180;59249;59.736;30.568;2022-08-19T00:28:04;101760.00;;;21.40
73937;BMP180;59249;59.736;30.568;2022-08-19T00:30:33;101754.00;;;21.30
73937;BMP180;59249;59.736;30.568;2022-08-19T00:33:03;101750.00;;;21.30
73937;BMP180;59249;59.736;30.568;2022-08-19T00:35:31;101742.00;;;21.30
73937;BMP180;59249;59.736;30.568;2022-08-19T00:38:00;101743.00;;;21.30
73937;BMP180;59249;59.736;30.568;2022-08-19T00:40:29;101745.00;;;21.20
73937;BMP180;59249;59.736;30.568;2022-08-19T00:42:58;101747.00;;;21.20
73937;BMP180;59249;59.736;30.568;2022-08-19T00:49:11;101752.00;;;21.20
73937;BMP180;59249;59.736;30.568;2022-08-19T00:51:45;101751.00;;;21.10
73937;BMP180;59249;59.736;30.568;2022-08-19T00:54:21;101750.00;;;21.00
73937;BMP180;59249;59.736;30.568;2022-08-19T00:56:57;101756.00;;;21.00
73937;BMP180;59249;59.736;30.568;2022-08-19T00:59:27;101756.00;;;21.00
73937;BMP180;59249;59.736;30.568;2022-08-19T01:02:17;101751.00;;;21.00
73937;BMP180;59249;59.736;30.568;2022-08-19T01:04:48;101749.00;;;20.90
73937;BMP180;59249;59.736;30.568;2022-08-19T01:07:17;101750.00;;;20.90
73937;BMP180;59249;59.736;30.568;2022-08-19T01:09:46;101749.00;;;20.90
73937;BMP180;59249;59.736;30.568;2022-08-19T01:12:15;101751.00;;;20.90
73937;BMP180;59249;59.736;30.568;2022-08-19T01:14:46;101752.00;;;20.80
73937;BMP180;59249;59.736;30.568;2022-08-19T01:17:16;101756.00;;;20.80
73937;BMP180;59249;59.736;30.568;2022-08-19T01:19:48;101752.00;;;20.80
73937;BMP180;59249;59.736;30.568;2022-08-19T01:22:26;101749.00;;;20.80
73937;BMP180;59249;59.736;30.568;2022-08-19T01:25:00;101763.00;;;20.70
73937;BMP180;59249;59.736;30.568;2022-08-19T01:27:37;101762.00;;;20.70
73937;BMP180;59249;59.736;30.568;2022-08-19T01:30:12;101764.00;;;20.60
73937;BMP180;59249;59.736;30.568;2022-08-19T01:32:42;101757.00;;;20.60
73937;BMP180;59249;59.736;30.568;2022-08-19T01:35:12;101767.00;;;20.60
73937;BMP180;59249;59.736;30.568;2022-08-19T01:37:50;101771.00;;;20.60
73937;BMP180;59249;59.736;30.568;2022-08-19T01:40:23;101767.00;;;20.60
73937;BMP180;59249;59.736;30.568;2022-08-19T01:42:54;101772.00;;;20.60
73937;BMP180;59249;59.736;30.568;2022-08-19T01:45:25;101768.00;;;20.40
73937;BMP180;59249;59.736;30.568;2022-08-19T01:47:57;101777.00;;;20.50
73937;BMP180;59249;59.736;30.568;2022-08-19T01:50:29;101776.00;;;20.40
73937;BMP180;59249;59.736;30.568;2022-08-19T01:53:00;101778.00;;;20.40
73937;BMP180;59249;59.736;30.568;2022-08-19T01:55:34;101778.00;;;20.40
73937;BMP180;59249;59.736;30.568;2022-08-19T01:58:10;101785.00;;;20.40
73937;BMP180;59249;59.736;30.568;2022-08-19T02:00:42;101779.00;;;20.40
73937;BMP180;59249;59.736;30.568;2022-08-19T02:03:12;101787.00;;;20.40
73937;BMP180;59249;59.736;30.568;2022-08-19T02:05:42;101783.00;;;20.40
73937;BMP180;59249;59.736;30.568;2022-08-19T02:08:13;101790.00;;;20.30
73937;BMP180;59249;59.736;30.568;2022-08-19T02:10:43;101803.00;;;20.30
73937;BMP180;59249;59.736;30.568;2022-08-19T02:13:12;101793.00;;;20.30
73937;BMP180;59249;59.736;30.568;2022-08-19T02:16:06;101797.00;;;20.30
73937;BMP180;59249;59.736;30.568;2022-08-19T02:18:35;101800.00;;;20.30
73937;BMP180;59249;59.736;30.568;2022-08-19T02:21:04;101801.00;;;20.20
73937;BMP180;59249;59.736;30.568;2022-08-19T02:23:35;101799.00;;;20.20
73937;BMP180;59249;59.736;30.568;2022-08-19T02:26:04;101801.00;;;20.20
73937;BMP180;59249;59.736;30.568;2022-08-19T02:28:34;101805.00;;;20.20
73937;BMP180;59249;59.736;30.568;2022-08-19T02:31:08;101798.00;;;20.20
73937;BMP180;59249;59.736;30.568;2022-08-19T02:33:38;101797.00;;;20.20
73937;BMP180;59249;59.736;30.568;2022-08-19T02:36:09;101798.00;;;20.20
73937;BMP180;59249;59.736;30.568;2022-08-19T02:38:43;101806.00;;;20.20
73937;BMP180;59249;59.736;30.568;2022-08-19T02:41:23;101801.00;;;20.20
73937;BMP180;59249;59.736;30.568;2022-08-19T02:43:53;101807.00;;;20.20
73937;BMP180;59249;59.736;30.568;2022-08-19T02:46:45;101804.00;;;20.20
73937;BMP180;59249;59.736;30.568;2022-08-19T02:49:18;101817.00;;;20.20
73937;BMP180;59249;59.736;30.568;2022-08-19T02:51:47;101808.00;;;20.20
73937;BMP180;59249;59.736;30.568;2022-08-19T02:54:17;101815.00;;;20.30
73937;BMP180;59249;59.736;30.568;2022-08-19T02:56:46;101817.00;;;20.40
73937;BMP180;59249;59.736;30.568;2022-08-19T02:59:15;101819.00;;;20.50
73937;BMP180;59249;59.736;30.568;2022-08-19T03:01:48;101810.00;;;20.50
73937;BMP180;59249;59.736;30.568;2022-08-19T03:04:18;101811.00;;;20.50
73937;BMP180;59249;59.736;30.568;2022-08-19T03:06:47;101814.00;;;20.60
73937;BMP180;59249;59.736;30.568;2022-08-19T03:09:18;101813.00;;;20.50
73937;BMP180;59249;59.736;30.568;2022-08-19T03:11:48;101815.00;;;20.50
73937;BMP180;59249;59.736;30.568;2022-08-19T03:14:18;101815.00;;;20.50
73937;BMP180;59249;59.736;30.568;2022-08-19T03:16:49;101820.00;;;20.50
73937;BMP180;59249;59.736;30.568;2022-08-19T03:19:20;101813.00;;;20.50
73937;BMP180;59249;59.736;30.568;2022-08-19T03:21:52;101814.00;;;20.50
73937;BMP180;59249;59.736;30.568;2022-08-19T03:24:23;101809.00;;;20.50
73937;BMP180;59249;59.736;30.568;2022-08-19T03:26:54;101815.00;;;20.50
73937;BMP180;59249;59.736;30.568;2022-08-19T03:29:25;101817.00;;;20.50
73937;BMP180;59249;59.736;30.568;2022-08-19T03:31:58;101819.00;;;20.50
73937;BMP180;59249;59.736;30.568;2022-08-19T03:34:33;101814.00;;;20.50
73937;BMP180;59249;59.736;30.568;2022-08-19T03:37:06;101817.00;;;20.50
73937;BMP180;59249;59.736;30.568;2022-08-19T03:39:39;101817.00;;;20.50
73937;BMP180;59249;59.736;30.568;2022-08-19T03:42:09;101825.00;;;20.50
73937;BMP180;59249;59.736;30.568;2022-08-19T03:44:59;101827.00;;;20.60
73937;BMP180;59249;59.736;30.568;2022-08-19T03:47:29;101826.00;;;20.60
73937;BMP180;59249;59.736;30.568;2022-08-19T03:49:57;101832.00;;;20.60
73937;BMP180;59249;59.736;30.568;2022-08-19T03:52:26;101827.00;;;20.70
73937;BMP180;59249;59.736;30.568;2022-08-19T03:54:56;101828.00;;;20.70
73937;BMP180;59249;59.736;30.568;2022-08-19T03:57:25;101829.00;;;20.70
73937;BMP180;59249;59.736;30.568;2022-08-19T03:59:58;101831.00;;;20.70
73937;BMP180;59249;59.736;30.568;2022-08-19T04:02:39;101837.00;;;20.80
73937;BMP180;59249;59.736;30.568;2022-08-19T04:05:24;101842.00;;;20.80
73937;BMP180;59249;59.736;30.568;2022-08-19T04:07:54;101832.00;;;20.80
73937;BMP180;59249;59.736;30.568;2022-08-19T04:10:28;101846.00;;;20.90
73937;BMP180;59249;59.736;30.568;2022-08-19T04:12:56;101853.00;;;20.90
73937;BMP180;59249;59.736;30.568;2022-08-19T04:15:25;101845.00;;;21.00
73937;BMP180;59249;59.736;30.568;2022-08-19T04:17:58;101855.00;;;21.00
73937;BMP180;59249;59.736;30.568;2022-08-19T04:20:27;101855.00;;;21.00
73937;BMP180;59249;59.736;30.568;2022-08-19T04:22:57;101861.00;;;21.10
73937;BMP180;59249;59.736;30.568;2022-08-19T04:25:36;101861.00;;;21.20
73937;BMP180;59249;59.736;30.568;2022-08-19T04:28:07;101859.00;;;21.20
73937;BMP180;59249;59.736;30.568;2022-08-19T04:30:40;101870.00;;;21.30
73937;BMP180;59249;59.736;30.568;2022-08-19T04:33:13;101860.00;;;21.30
73937;BMP180;59249;59.736;30.568;2022-08-19T04:35:52;101861.00;;;21.30
73937;BMP180;59249;59.736;30.568;2022-08-19T04:38:22;101863.00;;;21.40
73937;BMP180;59249;59.736;30.568;2022-08-19T04:40:52;101864.00;;;21.40
73937;BMP180;59249;59.736;30.568;2022-08-19T04:43:38;101869.00;;;21.50
73937;BMP180;59249;59.736;30.568;2022-08-19T04:46:08;101863.00;;;21.50
73937;BMP180;59249;59.736;30.568;2022-08-19T04:48:59;101869.00;;;21.60
73937;BMP180;59249;59.736;30.568;2022-08-19T04:51:40;101870.00;;;21.60
73937;BMP180;59249;59.736;30.568;2022-08-19T04:54:11;101878.00;;;21.60
73937;BMP180;59249;59.736;30.568;2022-08-19T04:56:51;101863.00;;;21.70
73937;BMP180;59249;59.736;30.568;2022-08-19T04:59:21;101869.00;;;21.70
73937;BMP180;59249;59.736;30.568;2022-08-19T05:01:50;101874.00;;;21.80
73937;BMP180;59249;59.736;30.568;2022-08-19T05:04:19;101875.00;;;21.80
73937;BMP180;59249;59.736;30.568;2022-08-19T05:06:50;101871.00;;;21.90
73937;BMP180;59249;59.736;30.568;2022-08-19T05:09:28;101876.00;;;22.00
73937;BMP180;59249;59.736;30.568;2022-08-19T05:12:19;101888.00;;;22.10
73937;BMP180;59249;59.736;30.568;2022-08-19T05:14:55;101883.00;;;22.20
73937;BMP180;59249;59.736;30.568;2022-08-19T05:17:24;101882.00;;;22.20
73937;BMP180;59249;59.736;30.568;2022-08-19T05:19:59;101886.00;;;22.30
73937;BMP180;59249;59.736;30.568;2022-08-19T05:22:46;101894.00;;;22.40
73937;BMP180;59249;59.736;30.568;2022-08-19T05:25:18;101891.00;;;22.50
73937;BMP180;59249;59.736;30.568;2022-08-19T05:27:49;101904.00;;;22.50
73937;BMP180;59249;59.736;30.568;2022-08-19T05:30:18;101899.00;;;22.60
73937;BMP180;59249;59.736;30.568;2022-08-19T05:33:07;101904.00;;;22.60
73937;BMP180;59249;59.736;30.568;2022-08-19T05:35:39;101908.00;;;22.70
73937;BMP180;59249;59.736;30.568;2022-08-19T05:38:08;101902.00;;;22.80
73937;BMP180;59249;59.736;30.568;2022-08-19T05:40:39;101896.00;;;22.90
73937;BMP180;59249;59.736;30.568;2022-08-19T05:43:09;101903.00;;;23.00
73937;BMP180;59249;59.736;30.568;2022-08-19T05:45:39;101902.00;;;23.00
73937;BMP180;59249;59.736;30.568;2022-08-19T05:48:09;101905.00;;;23.10
73937;BMP180;59249;59.736;30.568;2022-08-19T05:50:40;101910.00;;;23.10
73937;BMP180;59249;59.736;30.568;2022-08-19T05:53:09;101904.00;;;23.20
73937;BMP180;59249;59.736;30.568;2022-08-19T05:55:39;101905.00;;;23.30
73937;BMP180;59249;59.736;30.568;2022-08-19T05:58:09;101900.00;;;23.40
73937;BMP180;59249;59.736;30.568;2022-08-19T06:00:38;101903.00;;;23.50
73937;BMP180;59249;59.736;30.568;2022-08-19T06:03:07;101911.00;;;23.60
73937;BMP180;59249;59.736;30.568;2022-08-19T06:05:40;101909.00;;;23.70
73937;BMP180;59249;59.736;30.568;2022-08-19T06:08:19;101910.00;;;23.80
73937;BMP180;59249;59.736;30.568;2022-08-19T06:11:15;101906.00;;;23.80
73937;BMP180;59249;59.736;30.568;2022-08-19T06:13:50;101909.00;;;23.90
73937;BMP180;59249;59.736;30.568;2022-08-19T06:16:27;101910.00;;;24.00
73937;BMP180;59249;59.736;30.568;2022-08-19T06:19:02;101907.00;;;24.00
73937;BMP180;59249;59.736;30.568;2022-08-19T06:21:35;101917.00;;;24.10
73937;BMP180;59249;59.736;30.568;2022-08-19T06:24:10;101913.00;;;24.10
73937;BMP180;59249;59.736;30.568;2022-08-19T06:26:43;101919.00;;;24.20
73937;BMP180;59249;59.736;30.568;2022-08-19T06:29:17;101917.00;;;24.30
73937;BMP180;59249;59.736;30.568;2022-08-19T06:31:52;101917.00;;;24.40
73937;BMP180;59249;59.736;30.568;2022-08-19T06:34:24;101916.00;;;24.40
73937;BMP180;59249;59.736;30.568;2022-08-19T06:36:55;101928.00;;;24.50
73937;BMP180;59249;59.736;30.568;2022-08-19T06:39:30;101925.00;;;24.60
73937;BMP180;59249;59.736;30.568;2022-08-19T06:42:07;101930.00;;;24.70
73937;BMP180;59249;59.736;30.568;2022-08-19T06:44:42;101929.00;;;24.80
73937;BMP180;59249;59.736;30.568;2022-08-19T06:47:17;101933.00;;;24.90
73937;BMP180;59249;59.736;30.568;2022-08-19T06:49:58;101934.00;;;24.90
73937;BMP180;59249;59.736;30.568;2022-08-19T06:52:32;101938.00;;;25.00
73937;BMP180;59249;59.736;30.568;2022-08-19T06:55:05;101934.00;;;25.00
73937;BMP180;59249;59.736;30.568;2022-08-19T06:57:36;101939.00;;;25.10
73937;BMP180;59249;59.736;30.568;2022-08-19T07:00:08;101937.00;;;25.10
73937;BMP180;59249;59.736;30.568;2022-08-19T07:02:40;101946.00;;;25.20
73937;BMP180;59249;59.736;30.568;2022-08-19T07:05:19;101931.00;;;25.20
73937;BMP180;59249;59.736;30.568;2022-08-19T07:07:48;101935.00;;;25.30
73937;BMP180;59249;59.736;30.568;2022-08-19T07:10:17;101927.00;;;25.40
73937;BMP180;59249;59.736;30.568;2022-08-19T07:12:52;101929.00;;;25.50
73937;BMP180;59249;59.736;30.568;2022-08-19T07:15:22;101934.00;;;25.60
73937;BMP180;59249;59.736;30.568;2022-08-19T07:17:51;101933.00;;;25.70
73937;BMP180;59249;59.736;30.568;2022-08-19T07:20:21;101931.00;;;25.70
73937;BMP180;59249;59.736;30.568;2022-08-19T07:22:54;101940.00;;;25.80
73937;BMP180;59249;59.736;30.568;2022-08-19T07:25:24;101948.00;;;25.80
73937;BMP180;59249;59.736;30.568;2022-08-19T07:27:59;101942.00;;;25.90
73937;BMP180;59249;59.736;30.568;2022-08-19T07:30:30;101942.00;;;25.90
73937;BMP180;59249;59.736;30.568;2022-08-19T07:33:00;101949.00;;;26.00
73937;BMP180;59249;59.736;30.568;2022-08-19T07:35:29;101955.00;;;26.10
73937;BMP180;59249;59.736;30.568;2022-08-19T07:37:59;101954.00;;;26.20
73937;BMP180;59249;59.736;30.568;2022-08-19T07:40:30;101956.00;;;26.30
73937;BMP180;59249;59.736;30.568;2022-08-19T07:42:59;101951.00;;;26.20
73937;BMP180;59249;59.736;30.568;2022-08-19T07:45:29;101955.00;;;26.30
73937;BMP180;59249;59.736;30.568;2022-08-19T07:47:58;101953.00;;;26.40
73937;BMP180;59249;59.736;30.568;2022-08-19T07:50:28;101967.00;;;26.40
73937;BMP180;59249;59.736;30.568;2022-08-19T07:52:57;101961.00;;;26.50
73937;BMP180;59249;59.736;30.568;2022-08-19T07:55:26;101976.00;;;26.60
73937;BMP180;59249;59.736;30.568;2022-08-19T07:58:11;101964.00;;;26.70
73937;BMP180;59249;59.736;30.568;2022-08-19T08:00:46;101967.00;;;26.70
73937;BMP180;59249;59.736;30.568;2022-08-19T08:03:18;101967.00;;;26.80
73937;BMP180;59249;59.736;30.568;2022-08-19T08:06:09;101975.00;;;26.80
73937;BMP180;59249;59.736;30.568;2022-08-19T08:08:56;101970.00;;;26.80
73937;BMP180;59249;59.736;30.568;2022-08-19T08:11:49;101970.00;;;26.90
73937;BMP180;59249;59.736;30.568;2022-08-19T08:14:21;101966.00;;;27.00
73937;BMP180;59249;59.736;30.568;2022-08-19T08:17:03;101970.00;;;27.00
73937;BMP180;59249;59.736;30.568;2022-08-19T08:19:37;101971.00;;;27.10
73937;BMP180;59249;59.736;30.568;2022-08-19T08:22:09;101977.00;;;27.20
73937;BMP180;59249;59.736;30.568;2022-08-19T08:25:02;101973.00;;;27.30
73937;BMP180;59249;59.736;30.568;2022-08-19T08:27:35;101972.00;;;27.30
73937;BMP180;59249;59.736;30.568;2022-08-19T08:30:07;101967.00;;;27.40
73937;BMP180;59249;59.736;30.568;2022-08-19T08:32:39;101975.00;;;27.30
73937;BMP180;59249;59.736;30.568;2022-08-19T08:35:14;101974.00;;;27.40
73937;BMP180;59249;59.736;30.568;2022-08-19T08:37:47;101973.00;;;27.40
73937;BMP180;59249;59.736;30.568;2022-08-19T08:40:22;101974.00;;;27.40
73937;BMP180;59249;59.736;30.568;2022-08-19T08:42:58;101982.00;;;27.50
73937;BMP180;59249;59.736;30.568;2022-08-19T08:45:43;101984.00;;;27.50
73937;BMP180;59249;59.736;30.568;2022-08-19T08:48:25;101985.00;;;27.60
73937;BMP180;59249;59.736;30.568;2022-08-19T08:51:10;101982.00;;;27.60
73937;BMP180;59249;59.736;30.568;2022-08-19T08:53:49;101980.00;;;27.70
73937;BMP180;59249;59.736;30.568;2022-08-19T08:56:22;101983.00;;;27.70
73937;BMP180;59249;59.736;30.568;2022-08-19T08:58:58;101991.00;;;27.80
73937;BMP180;59249;59.736;30.568;2022-08-19T09:01:30;101984.00;;;27.80
73937;BMP180;59249;59.736;30.568;2022-08-19T09:04:02;101991.00;;;27.90
73937;BMP180;59249;59.736;30.568;2022-08-19T09:06:38;102002.00;;;28.00
73937;BMP180;59249;59.736;30.568;2022-08-19T09:09:17;101989.00;;;28.10
73937;BMP180;59249;59.736;30.568;2022-08-19T09:12:03;101994.00;;;28.10
73937;BMP180;59249;59.736;30.568;2022-08-19T09:14:45;101994.00;;;28.20
73937;BMP180;59249;59.736;30.568;2022-08-19T09:17:20;102000.00;;;28.20
73937;BMP180;59249;59.736;30.568;2022-08-19T09:20:04;101995.00;;;28.30
73937;BMP180;59249;59.736;30.568;2022-08-19T09:22:42;101995.00;;;28.40
73937;BMP180;59249;59.736;30.568;2022-08-19T09:25:16;101992.00;;;28.40
73937;BMP180;59249;59.736;30.568;2022-08-19T09:27:55;101995.00;;;28.50
73937;BMP180;59249;59.736;30.568;2022-08-19T09:30:32;102001.00;;;28.60
73937;BMP180;59249;59.736;30.568;2022-08-19T09:33:05;102004.00;;;28.60
73937;BMP180;59249;59.736;30.568;2022-08-19T09:35:36;101992.00;;;28.70
73937;BMP180;59249;59.736;30.568;2022-08-19T09:38:19;101994.00;;;28.70
73937;BMP180;59249;59.736;30.568;2022-08-19T09:40:48;101992.00;;;28.70
73937;BMP180;59249;59.736;30.568;2022-08-19T09:43:17;101982.00;;;28.80
73937;BMP180;59249;59.736;30.568;2022-08-19T09:46:07;101983.00;;;28.80
73937;BMP180;59249;59.736;30.568;2022-08-19T09:48:37;101983.00;;;28.80
73937;BMP180;59249;59.736;30.568;2022-08-19T09:51:10;101983.00;;;28.90
73937;BMP180;59249;59.736;30.568;2022-08-19T09:53:43;101982.00;;;29.00
73937;BMP180;59249;59.736;30.568;2022-08-19T09:56:14;101987.00;;;29.00
73937;BMP180;59249;59.736;30.568;2022-08-19T09:58:46;101987.00;;;29.00
73937;BMP180;59249;59.736;30.568;2022-08-19T10:01:17;101991.00;;;29.10
73937;BMP180;59249;59.736;30.568;2022-08-19T10:03:49;101978.00;;;29.10
73937;BMP180;59249;59.736;30.568;2022-08-19T10:06:23;101981.00;;;29.20
73937;BMP180;59249;59.736;30.568;2022-08-19T10:09:14;101982.00;;;29.20
73937;BMP180;59249;59.736;30.568;2022-08-19T10:12:00;101978.00;;;29.30
73937;BMP180;59249;59.736;30.568;2022-08-19T10:14:31;101985.00;;;29.30
73937;BMP180;59249;59.736;30.568;2022-08-19T10:17:01;101983.00;;;29.30
73937;BMP180;59249;59.736;30.568;2022-08-19T10:19:48;101986.00;;;29.40
73937;BMP180;59249;59.736;30.568;2022-08-19T10:22:23;101988.00;;;29.50
73937;BMP180;59249;59.736;30.568;2022-08-19T10:24:52;101986.00;;;29.50
73937;BMP180;59249;59.736;30.568;2022-08-19T10:27:21;101989.00;;;29.50
73937;BMP180;59249;59.736;30.568;2022-08-19T10:29:52;101988.00;;;29.60
73937;BMP180;59249;59.736;30.568;2022-08-19T10:32:24;101991.00;;;29.60
73937;BMP180;59249;59.736;30.568;2022-08-19T10:35:00;101983.00;;;29.80
73937;BMP180;59249;59.736;30.568;2022-08-19T10:37:33;101987.00;;;29.80
73937;BMP180;59249;59.736;30.568;2022-08-19T10:40:15;101986.00;;;29.80
73937;BMP180;59249;59.736;30.568;2022-08-19T10:42:44;101980.00;;;29.80
73937;BMP180;59249;59.736;30.568;2022-08-19T10:45:13;101983.00;;;29.90
73937;BMP180;59249;59.736;30.568;2022-08-19T10:47:42;101986.00;;;30.00
73937;BMP180;59249;59.736;30.568;2022-08-19T10:50:10;101989.00;;;30.00
73937;BMP180;59249;59.736;30.568;2022-08-19T10:53:03;101990.00;;;30.10
73937;BMP180;59249;59.736;30.568;2022-08-19T10:55:35;101985.00;;;30.00
73937;BMP180;59249;59.736;30.568;2022-08-19T10:58:33;101982.00;;;30.00
73937;BMP180;59249;59.736;30.568;2022-08-19T11:01:02;101984.00;;;30.10
73937;BMP180;59249;59.736;30.568;2022-08-19T11:03:31;101981.00;;;30.10
73937;BMP180;59249;59.736;30.568;2022-08-19T11:06:17;101971.00;;;30.20
73937;BMP180;59249;59.736;30.568;2022-08-19T11:08:47;101973.00;;;30.30
73937;BMP180;59249;59.736;30.568;2022-08-19T11:11:16;101984.00;;;30.40
73937;BMP180;59249;59.736;30.568;2022-08-19T11:13:45;101978.00;;;30.30
73937;BMP180;59249;59.736;30.568;2022-08-19T11:16:16;101975.00;;;30.40
73937;BMP180;59249;59.736;30.568;2022-08-19T11:18:49;101966.00;;;30.40
73937;BMP180;59249;59.736;30.568;2022-08-19T11:21:22;101978.00;;;30.40
73937;BMP180;59249;59.736;30.568;2022-08-19T11:23:56;101968.00;;;30.50
73937;BMP180;59249;59.736;30.568;2022-08-19T11:26:26;101971.00;;;30.50
73937;BMP180;59249;59.736;30.568;2022-08-19T11:28:57;101971.00;;;30.50
73937;BMP180;59249;59.736;30.568;2022-08-19T11:31:34;101966.00;;;30.60
73937;BMP180;59249;59.736;30.568;2022-08-19T11:34:07;101973.00;;;30.60
73937;BMP180;59249;59.736;30.568;2022-08-19T11:36:40;101974.00;;;30.70
73937;BMP180;59249;59.736;30.568;2022-08-19T11:39:14;101974.00;;;30.60
73937;BMP180;59249;59.736;30.568;2022-08-19T11:41:45;101969.00;;;30.80
73937;BMP180;59249;59.736;30.568;2022-08-19T11:44:14;101972.00;;;30.80
73937;BMP180;59249;59.736;30.568;2022-08-19T11:46:44;101969.00;;;30.90
73937;BMP180;59249;59.736;30.568;2022-08-19T11:49:14;101970.00;;;30.90
73937;BMP180;59249;59.736;30.568;2022-08-19T11:51:46;101967.00;;;30.90
73937;BMP180;59249;59.736;30.568;2022-08-19T11:54:18;101968.00;;;30.90
73937;BMP180;59249;59.736;30.568;2022-08-19T11:56:47;101974.00;;;30.80
73937;BMP180;59249;59.736;30.568;2022-08-19T11:59:16;101971.00;;;30.90
73937;BMP180;59249;59.736;30.568;2022-08-19T12:01:45;101968.00;;;30.80
73937;BMP180;59249;59.736;30.568;2022-08-19T12:04:13;101978.00;;;30.80
73937;BMP180;59249;59.736;30.568;2022-08-19T12:06:44;101983.00;;;30.90
73937;BMP180;59249;59.736;30.568;2022-08-19T12:09:13;101974.00;;;31.00
73937;BMP180;59249;59.736;30.568;2022-08-19T12:11:43;101979.00;;;31.10
73937;BMP180;59249;59.736;30.568;2022-08-19T12:14:13;101978.00;;;31.10
73937;BMP180;59249;59.736;30.568;2022-08-19T12:16:45;101972.00;;;31.00
73937;BMP180;59249;59.736;30.568;2022-08-19T12:19:18;101978.00;;;31.10
73937;BMP180;59249;59.736;30.568;2022-08-19T12:21:49;101980.00;;;31.20
73937;BMP180;59249;59.736;30.568;2022-08-19T12:24:19;101985.00;;;31.20
73937;BMP180;59249;59.736;30.568;2022-08-19T12:26:52;101984.00;;;31.20
73937;BMP180;59249;59.736;30.568;2022-08-19T12:29:27;101982.00;;;31.20
73937;BMP180;59249;59.736;30.568;2022-08-19T12:31:57;101976.00;;;31.20
73937;BMP180;59249;59.736;30.568;2022-08-19T12:34:31;101968.00;;;31.10
73937;BMP180;59249;59.736;30.568;2022-08-19T12:37:02;101971.00;;;31.20
73937;BMP180;59249;59.736;30.568;2022-08-19T12:39:35;101968.00;;;31.30
73937;BMP180;59249;59.736;30.568;2022-08-19T12:42:07;101968.00;;;31.40
73937;BMP180;59249;59.736;30.568;2022-08-19T12:44:37;101965.00;;;31.40
73937;BMP180;59249;59.736;30.568;2022-08-19T12:47:10;101959.00;;;31.50
73937;BMP180;59249;59.736;30.568;2022-08-19T12:49:41;101957.00;;;31.50
73937;BMP180;59249;59.736;30.568;2022-08-19T12:52:23;101956.00;;;31.40
73937;BMP180;59249;59.736;30.568;2022-08-19T12:54:52;101951.00;;;31.40
73937;BMP180;59249;59.736;30.568;2022-08-19T12:57:25;101957.00;;;31.40
73937;BMP180;59249;59.736;30.568;2022-08-19T13:00:01;101950.00;;;31.40
73937;BMP180;59249;59.736;30.568;2022-08-19T13:02:35;101956.00;;;31.40
73937;BMP180;59249;59.736;30.568;2022-08-19T13:05:07;101954.00;;;31.30
73937;BMP180;59249;59.736;30.568;2022-08-19T13:07:40;101948.00;;;31.30
73937;BMP180;59249;59.736;30.568;2022-08-19T13:10:13;101950.00;;;31.20
73937;BMP180;59249;59.736;30.568;2022-08-19T13:12:47;101946.00;;;31.30
73937;BMP180;59249;59.736;30.568;2022-08-19T13:15:18;101963.00;;;31.40
73937;BMP180;59249;59.736;30.568;2022-08-19T13:17:52;101968.00;;;31.40
73937;BMP180;59249;59.736;30.568;2022-08-19T13:20:23;101963.00;;;31.40
73937;BMP180;59249;59.736;30.568;2022-08-19T13:22:54;101960.00;;;31.40
73937;BMP180;59249;59.736;30.568;2022-08-19T13:25:24;101956.00;;;31.40
73937;BMP180;59249;59.736;30.568;2022-08-19T13:27:55;101954.00;;;31.20
73937;BMP180;59249;59.736;30.568;2022-08-19T13:30:23;101964.00;;;31.30
73937;BMP180;59249;59.736;30.568;2022-08-19T13:33:10;101966.00;;;31.20
73937;BMP180;59249;59.736;30.568;2022-08-19T13:35:44;101971.00;;;31.20
73937;BMP180;59249;59.736;30.568;2022-08-19T13:38:16;101972.00;;;31.30
73937;BMP180;59249;59.736;30.568;2022-08-19T13:40:48;101972.00;;;31.40
73937;BMP180;59249;59.736;30.568;2022-08-19T13:43:21;101967.00;;;31.40
73937;BMP180;59249;59.736;30.568;2022-08-19T13:45:53;101966.00;;;31.30
73937;BMP180;59249;59.736;30.568;2022-08-19T13:48:24;101960.00;;;31.30
73937;BMP180;59249;59.736;30.568;2022-08-19T13:50:54;101960.00;;;31.30
73937;BMP180;59249;59.736;30.568;2022-08-19T13:53:23;101964.00;;;31.20
73937;BMP180;59249;59.736;30.568;2022-08-19T13:55:52;101966.00;;;31.30
73937;BMP180;59249;59.736;30.568;2022-08-19T13:58:23;101962.00;;;31.30
73937;BMP180;59249;59.736;30.568;2022-08-19T14:00:51;101964.00;;;31.30
73937;BMP180;59249;59.736;30.568;2022-08-19T14:03:20;101962.00;;;31.40
73937;BMP180;59249;59.736;30.568;2022-08-19T14:05:49;101964.00;;;31.30
73937;BMP180;59249;59.736;30.568;2022-08-19T14:08:18;101963.00;;;31.30
73937;BMP180;59249;59.736;30.568;2022-08-19T14:10:47;101963.00;;;31.20
73937;BMP180;59249;59.736;30.568;2022-08-19T14:13:18;101959.00;;;31.20
73937;BMP180;59249;59.736;30.568;2022-08-19T14:15:49;101953.00;;;31.20
73937;BMP180;59249;59.736;30.568;2022-08-19T14:18:19;101959.00;;;31.00
73937;BMP180;59249;59.736;30.568;2022-08-19T14:20:47;101953.00;;;31.10
73937;BMP180;59249;59.736;30.568;2022-08-19T14:23:16;101957.00;;;31.10
73937;BMP180;59249;59.736;30.568;2022-08-19T14:25:46;101957.00;;;31.00
73937;BMP180;59249;59.736;30.568;2022-08-19T14:28:15;101959.00;;;30.90
73937;BMP180;59249;59.736;30.568;2022-08-19T14:30:44;101967.00;;;30.90